Time;durP1;ratioP1;P1;durP2;ratioP2;P2;SDS_P1;SDS_P2;PMS_P1;PMS_P2;Temp;Humidity;BMP_temperature;BMP_pressure;BME280_temperature;BME280_humidity;BME280_pressure;Samples;Min_cycle;Max_cycle;Signal;HPM_P1;HPM_P2
2022/12/02 00:01:42;;;;;;;88.40;55.00;;;;;;;8.09;74.73;101514.47;4999242;28;20068;-78
2022/12/02 00:04:24;;;;;;;88.50;54.03;;;;;;;8.11;75.09;101512.59;4980607;28;20060;-79
2022/12/02 00:06:52;;;;;;;84.40;52.83;;;;;;;7.62;75.26;101441.69;4996580;28;20065;-79
2022/12/02 00:09:28;;;;;;;90.07;53.55;;;;;;;8.16;75.62;101519.41;4979745;28;20850;-79
2022/12/02 00:11:57;;;;;;;87.90;52.33;;;;;;;8.17;74.93;101516.63;4977315;28;20514;-79
2022/12/02 00:14:33;;;;;;;81.60;52.13;;;;;;;8.12;75.28;101508.16;4981526;28;20428;-81
2022/12/02 00:17:00;;;;;;;96.97;52.60;;;;;;;8.16;75.56;101514.09;4987921;28;20046;-80
2022/12/02 00:19:26;;;;;;;86.55;52.80;;;;;;;8.19;75.65;101516.53;4997586;28;20168;-79
2022/12/02 00:21:56;;;;;;;84.05;52.75;;;;;;;8.23;75.55;101516.25;5006842;28;20491;-82
2022/12/02 00:24:22;;;;;;;93.32;55.63;;;;;;;8.17;74.59;101492.00;4996194;28;20111;-78
2022/12/02 00:26:49;;;;;;;89.80;55.17;;;;;;;8.01;74.75;101474.47;4980616;28;20723;-78
2022/12/02 00:29:19;;;;;;;92.97;53.22;;;;;;;8.24;74.42;101523.22;4981093;28;20749;-79
2022/12/02 00:31:48;;;;;;;94.90;55.08;;;;;;;8.24;75.00;101528.53;4981295;28;20608;-80
2022/12/02 00:34:15;;;;;;;88.15;53.63;;;;;;;8.04;74.95;101491.94;4981886;28;20076;-79
2022/12/02 00:36:45;;;;;;;98.00;55.55;;;;;;;8.28;74.65;101519.44;4998252;28;20053;-79
2022/12/02 00:39:12;;;;;;;85.13;53.30;;;;;;;7.98;74.67;101468.50;4998597;28;20162;-80
2022/12/02 00:41:39;;;;;;;90.28;54.45;;;;;;;8.26;74.31;101521.34;4999348;28;20061;-80
2022/12/02 00:46:54;;;;;;;82.30;49.95;;;;;;;8.14;73.50;101495.69;5000221;28;20426;-79
2022/12/02 00:49:21;;;;;;;76.45;49.45;;;;;;;7.96;72.77;101465.13;4996802;28;20144;-79
2022/12/02 00:51:53;;;;;;;80.53;47.47;;;;;;;8.23;71.42;101505.69;4995660;28;20667;-77
2022/12/02 00:54:23;;;;;;;84.40;50.30;;;;;;;8.10;71.58;101488.88;5003118;28;20403;-79
2022/12/02 00:56:50;;;;;;;72.70;47.17;;;;;;;8.30;70.60;101512.25;4998030;28;20144;-79
2022/12/02 00:59:18;;;;;;;76.45;47.85;;;;;;;8.12;71.12;101495.75;4983918;28;20056;-79
2022/12/02 01:01:45;;;;;;;81.85;47.45;;;;;;;8.14;71.85;101508.91;4998066;28;20269;-80
2022/12/02 01:04:12;;;;;;;78.50;48.10;;;;;;;8.11;71.52;101499.38;4980487;28;20355;-78
2022/12/02 01:06:39;;;;;;;80.43;48.50;;;;;;;7.57;71.49;101406.75;4990789;28;20065;-80
2022/12/02 01:09:10;;;;;;;83.90;50.78;;;;;;;7.93;70.94;101469.66;4998714;28;20419;-77
2022/12/02 01:11:38;;;;;;;78.95;49.13;;;;;;;8.18;71.28;101512.19;5003050;28;20045;-79
2022/12/02 01:14:05;;;;;;;83.95;51.40;;;;;;;8.04;71.45;101494.59;4999527;28;20057;-79
2022/12/02 01:16:35;;;;;;;79.43;49.08;;;;;;;8.07;71.66;101503.16;5005119;28;20322;-79
2022/12/02 01:19:02;;;;;;;77.90;48.97;;;;;;;8.16;72.00;101524.69;5000808;28;20059;-79
2022/12/02 01:21:53;;;;;;;79.85;47.78;;;;;;;8.06;71.94;101511.19;5007587;28;20139;-78
2022/12/02 01:24:22;;;;;;;89.97;51.38;;;;;;;8.04;72.60;101500.72;5037003;28;20422;-76
2022/12/02 01:26:49;;;;;;;87.63;51.72;;;;;;;8.01;72.70;101487.69;5022836;28;20095;-77
2022/12/02 01:29:25;;;;;;;86.13;49.67;;;;;;;8.15;71.87;101513.22;5022492;28;20044;-77
2022/12/02 01:31:54;;;;;;;76.13;47.88;;;;;;;7.95;71.14;101482.78;5013966;28;20065;-77
2022/12/02 01:34:21;;;;;;;71.60;45.83;;;;;;;7.97;71.67;101482.69;4995318;28;20046;-77
2022/12/02 01:36:51;;;;;;;75.18;44.05;;;;;;;8.30;70.58;101533.44;5014895;28;20541;-78
2022/12/02 01:39:18;;;;;;;78.40;45.40;;;;;;;8.10;70.59;101496.81;4997954;28;20473;-79
2022/12/02 01:41:48;;;;;;;80.47;45.00;;;;;;;8.18;70.67;101498.97;4997139;28;20049;-79
2022/12/02 01:44:15;;;;;;;75.20;45.60;;;;;;;8.34;70.69;101523.47;4997799;28;20045;-79
2022/12/02 01:46:48;;;;;;;74.90;45.42;;;;;;;8.34;70.40;101529.63;4998114;28;20052;-79
2022/12/02 01:49:24;;;;;;;76.63;45.40;;;;;;;8.11;69.89;101493.25;4997458;28;20045;-80
2022/12/02 01:51:53;;;;;;;75.97;44.53;;;;;;;8.34;70.27;101529.63;4976395;28;20175;-79
2022/12/02 01:54:20;;;;;;;81.78;47.72;;;;;;;8.30;70.36;101522.84;4983392;28;20369;-78
2022/12/02 01:56:56;;;;;;;76.85;47.83;;;;;;;8.32;70.01;101514.78;4994167;28;20045;-79
2022/12/02 01:59:28;;;;;;;84.32;49.30;;;;;;;8.24;70.21;101507.34;5005813;28;20053;-79
2022/12/02 02:01:58;;;;;;;77.65;46.58;;;;;;;8.19;70.74;101501.53;5027253;28;20484;-78
2022/12/02 02:04:25;;;;;;;80.10;49.65;;;;;;;8.22;70.56;101514.53;5004767;28;20516;-79
2022/12/02 02:06:52;;;;;;;76.82;48.13;;;;;;;7.86;70.40;101455.16;5003858;28;20496;-79
2022/12/02 02:09:19;;;;;;;80.50;46.85;;;;;;;8.15;70.90;101505.31;5001443;28;20447;-77
2022/12/02 02:11:46;;;;;;;82.30;47.28;;;;;;;8.25;70.56;101519.66;5001795;28;20546;-77
2022/12/02 02:14:13;;;;;;;68.07;42.65;;;;;;;8.23;70.28;101510.97;5001778;28;20520;-78
2022/12/02 02:16:40;;;;;;;77.47;45.90;;;;;;;8.11;70.77;101502.03;5004940;28;20443;-79
2022/12/02 02:19:11;;;;;;;84.28;47.88;;;;;;;8.28;70.82;101519.44;5000846;28;20050;-77
2022/12/02 02:21:50;;;;;;;84.70;47.97;;;;;;;8.16;70.92;101512.31;5000525;28;20167;-79
2022/12/02 02:24:17;;;;;;;80.85;49.08;;;;;;;8.16;71.82;101522.03;4999937;28;20099;-77
2022/12/02 02:26:47;;;;;;;70.82;43.60;;;;;;;8.10;71.66;101517.97;5001077;28;20065;-79
2022/12/02 02:29:14;;;;;;;64.90;42.28;;;;;;;7.67;71.61;101429.03;5002628;28;20483;-78
2022/12/02 02:31:43;;;;;;;66.20;41.78;;;;;;;8.16;70.80;101503.53;4986343;28;20076;-79
2022/12/02 02:34:11;;;;;;;70.45;41.80;;;;;;;8.00;71.60;101483.34;4994275;28;20313;-78
2022/12/02 02:36:38;;;;;;;85.30;46.92;;;;;;;8.09;71.74;101506.56;4986349;28;20068;-78
2022/12/02 02:39:05;;;;;;;77.35;46.92;;;;;;;7.35;71.60;101375.56;4985173;28;20887;-78
2022/12/02 02:41:32;;;;;;;84.95;48.45;;;;;;;8.04;72.35;101505.16;4987591;28;20057;-77
2022/12/02 02:43:59;;;;;;;75.72;47.13;;;;;;;8.16;72.07;101507.00;4988881;28;20317;-78
2022/12/02 02:46:26;;;;;;;79.82;46.90;;;;;;;8.00;72.21;101479.84;5006407;28;20076;-79
2022/12/02 02:48:53;;;;;;;69.03;41.70;;;;;;;8.05;72.24;101475.09;4988173;28;20059;-80
2022/12/02 02:51:20;;;;;;;66.20;42.10;;;;;;;8.11;72.49;101501.19;4987764;28;20581;-79
2022/12/02 02:53:46;;;;;;;70.78;42.72;;;;;;;8.13;72.45;101504.53;4984022;28;20049;-78
2022/12/02 02:56:14;;;;;;;64.13;38.88;;;;;;;8.04;73.22;101484.84;5019116;28;20126;-80
2022/12/02 02:58:41;;;;;;;62.53;39.55;;;;;;;8.03;72.91;101487.56;5020684;28;20045;-77
2022/12/02 03:01:15;;;;;;;64.38;37.70;;;;;;;7.85;73.52;101466.66;5004705;28;20067;-80
2022/12/02 03:03:47;;;;;;;67.00;39.60;;;;;;;7.81;73.58;101465.16;5023800;28;20433;-77
2022/12/02 03:06:16;;;;;;;70.05;41.22;;;;;;;7.98;74.01;101495.78;4990215;28;20352;-76
2022/12/02 03:08:47;;;;;;;66.43;39.60;;;;;;;7.69;74.15;101463.28;4985508;28;20060;-79
2022/12/02 03:11:14;;;;;;;68.20;42.08;;;;;;;7.95;73.81;101497.81;4983508;28;20059;-79
2022/12/02 03:13:44;;;;;;;70.53;42.67;;;;;;;7.92;74.51;101497.03;4985611;28;20049;-80
2022/12/02 03:16:14;;;;;;;71.47;42.60;;;;;;;7.86;74.85;101497.44;4988586;28;20103;-80
2022/12/02 03:18:43;;;;;;;74.35;42.95;;;;;;;7.53;75.25;101452.00;4985495;28;20111;-79
2022/12/02 03:21:12;;;;;;;73.68;42.90;;;;;;;7.79;75.84;101504.06;5002243;28;20170;-80
2022/12/02 03:23:39;;;;;;;65.65;37.70;;;;;;;7.32;75.41;101425.13;5003208;28;20568;-79
2022/12/02 03:26:07;;;;;;;64.38;38.90;;;;;;;7.12;75.60;101395.50;4986195;28;20061;-80
2022/12/02 03:28:34;;;;;;;66.10;39.03;;;;;;;7.59;76.15;101467.44;4979942;28;20061;-80
2022/12/02 03:31:03;;;;;;;71.78;41.10;;;;;;;7.59;75.94;101462.16;4979054;28;20188;-80
2022/12/02 03:33:30;;;;;;;72.20;43.17;;;;;;;7.78;75.97;101489.13;4985191;28;20562;-79
2022/12/02 03:35:59;;;;;;;75.65;42.28;;;;;;;7.47;76.25;101448.75;4993750;28;20605;-77
2022/12/02 03:38:27;;;;;;;66.32;40.60;;;;;;;7.73;76.67;101491.22;5000957;28;20267;-80
2022/12/02 03:40:55;;;;;;;73.63;43.50;;;;;;;7.69;77.10;101489.72;5001547;28;20502;-79
2022/12/02 03:43:23;;;;;;;60.60;38.13;;;;;;;7.67;77.23;101492.47;5000824;28;20115;-80
2022/12/02 03:45:49;;;;;;;67.00;39.40;;;;;;;7.06;77.49;101390.59;5002117;28;20683;-79
2022/12/02 03:48:21;;;;;;;58.92;35.03;;;;;;;7.66;77.61;101487.25;5002373;28;20051;-79
2022/12/02 03:50:50;;;;;;;62.42;37.05;;;;;;;7.38;76.88;101438.78;5004376;28;20116;-80
2022/12/02 03:53:19;;;;;;;61.42;38.45;;;;;;;7.56;77.92;101483.50;5002938;28;20578;-81
2022/12/02 03:55:47;;;;;;;61.47;36.75;;;;;;;7.49;77.66;101470.66;5001298;28;20048;-79
2022/12/02 03:58:15;;;;;;;60.13;36.10;;;;;;;7.59;77.90;101491.22;4997525;28;20048;-80
2022/12/02 04:00:41;;;;;;;60.67;36.08;;;;;;;7.52;78.24;101472.25;4982268;28;20584;-80
2022/12/02 04:03:12;;;;;;;62.05;37.30;;;;;;;7.61;77.99;101487.56;4983373;28;20572;-79
2022/12/02 04:05:43;;;;;;;62.45;37.38;;;;;;;7.48;78.23;101457.56;4999964;28;20061;-79
2022/12/02 04:08:18;;;;;;;56.78;36.88;;;;;;;7.67;77.65;101486.31;5004778;28;20057;-80
2022/12/02 04:10:45;;;;;;;57.60;36.58;;;;;;;7.45;78.39;101445.41;5007858;28;20033;-78
2022/12/02 04:13:13;;;;;;;57.60;36.20;;;;;;;7.62;78.15;101468.13;5006580;28;20064;-80
2022/12/02 04:15:39;;;;;;;53.88;35.88;;;;;;;7.63;77.80;101471.63;4992650;28;20458;-79
2022/12/02 04:18:06;;;;;;;56.83;36.17;;;;;;;7.64;77.99;101478.59;4983273;28;20046;-80
2022/12/02 04:20:43;;;;;;;57.28;35.70;;;;;;;7.65;78.38;101477.66;4985711;28;20695;-80
2022/12/02 04:23:13;;;;;;;52.47;32.22;;;;;;;7.54;78.07;101458.97;4980389;28;20193;-79
2022/12/02 04:25:40;;;;;;;52.22;34.97;;;;;;;7.19;78.23;101422.38;4964375;28;20529;-79
2022/12/02 04:28:07;;;;;;;57.58;34.95;;;;;;;7.49;78.34;101465.38;4967661;28;20057;-79
2022/12/02 04:30:33;;;;;;;51.88;31.83;;;;;;;7.58;77.88;101465.75;4968376;28;20069;-77
2022/12/02 04:33:00;;;;;;;49.88;32.22;;;;;;;7.59;77.75;101483.31;4982351;28;20063;-78
2022/12/02 04:35:27;;;;;;;59.38;34.60;;;;;;;7.56;78.19;101475.56;4988303;28;20050;-79
2022/12/02 04:37:54;;;;;;;47.50;31.50;;;;;;;7.33;78.01;101432.94;4996865;28;20056;-80
2022/12/02 04:40:22;;;;;;;45.97;29.63;;;;;;;7.28;78.34;101421.78;5004344;28;20056;-79
2022/12/02 04:42:48;;;;;;;58.05;30.50;;;;;;;7.43;77.96;101444.63;5005728;28;20093;-79
2022/12/02 04:45:17;;;;;;;47.53;30.02;;;;;;;7.63;78.04;101479.53;5023755;28;20053;-79
2022/12/02 04:47:44;;;;;;;50.45;29.90;;;;;;;7.53;77.85;101476.63;5021180;28;20059;-79
2022/12/02 04:50:12;;;;;;;44.58;28.92;;;;;;;7.58;78.55;101481.63;5005834;28;20044;-79
2022/12/02 04:52:39;;;;;;;48.30;27.25;;;;;;;7.59;78.18;101478.03;5003136;28;20554;-78
2022/12/02 04:55:07;;;;;;;40.90;26.15;;;;;;;7.57;77.50;101469.34;5005604;28;20103;-78
2022/12/02 04:57:34;;;;;;;35.35;24.77;;;;;;;7.68;77.42;101477.44;5001225;28;20546;-80
2022/12/02 05:00:03;;;;;;;41.47;25.42;;;;;;;7.60;77.54;101479.75;5003576;28;20049;-79
2022/12/02 05:02:32;;;;;;;39.78;25.42;;;;;;;7.39;78.17;101456.34;5004364;28;20342;-79
2022/12/02 05:04:59;;;;;;;41.40;25.92;;;;;;;7.58;78.06;101482.47;5018092;28;20053;-80
2022/12/02 05:07:26;;;;;;;39.63;25.50;;;;;;;7.45;77.34;101463.88;5003366;28;20053;-78
2022/12/02 05:09:52;;;;;;;40.78;25.08;;;;;;;7.43;77.69;101472.84;5000620;28;20562;-79
2022/12/02 05:12:19;;;;;;;37.85;24.70;;;;;;;7.45;78.69;101482.38;4998944;28;20160;-79
2022/12/02 05:14:49;;;;;;;38.65;22.73;;;;;;;7.43;77.71;101462.28;4999521;28;20061;-79
2022/12/02 05:17:17;;;;;;;30.33;20.92;;;;;;;7.48;78.21;101476.06;5001977;28;20053;-79
2022/12/02 05:19:44;;;;;;;30.58;20.48;;;;;;;7.27;77.36;101422.75;5000128;28;20061;-79
2022/12/02 05:22:11;;;;;;;31.33;20.52;;;;;;;7.57;77.55;101493.13;5000491;28;20156;-78
2022/12/02 05:24:39;;;;;;;30.42;22.17;;;;;;;7.19;77.49;101422.38;4997838;28;20158;-80
2022/12/02 05:27:06;;;;;;;45.33;25.92;;;;;;;7.49;77.66;101473.31;5000419;28;20097;-79
2022/12/02 05:29:32;;;;;;;43.78;26.88;;;;;;;7.54;77.46;101486.22;5000579;28;20244;-80
2022/12/02 05:32:08;;;;;;;45.20;28.38;;;;;;;7.25;78.00;101435.19;5002542;28;20479;-78
2022/12/02 05:34:41;;;;;;;47.47;29.20;;;;;;;7.06;78.32;101403.78;5003106;28;20056;-79
2022/12/02 05:37:26;;;;;;;44.20;28.00;;;;;;;7.65;77.65;101504.94;4962509;28;20136;-78
2022/12/02 05:39:53;;;;;;;46.35;29.98;;;;;;;7.66;78.02;101501.31;4962141;28;20057;-80
2022/12/02 05:42:20;;;;;;;49.47;30.40;;;;;;;7.66;77.79;101500.47;4964460;28;20290;-78
2022/12/02 05:44:49;;;;;;;46.53;30.85;;;;;;;7.70;77.21;101496.72;4962595;28;20603;-77
2022/12/02 05:47:17;;;;;;;49.83;31.05;;;;;;;7.62;77.91;101493.69;4962876;28;20079;-78
2022/12/02 05:49:45;;;;;;;40.10;26.92;;;;;;;7.58;77.98;101481.63;4981078;28;20046;-79
2022/12/02 05:52:29;;;;;;;43.65;28.05;;;;;;;7.66;77.66;101496.03;4964282;28;20472;-79
2022/12/02 05:55:00;;;;;;;41.83;27.77;;;;;;;7.71;77.09;101504.53;4981761;28;20160;-79
2022/12/02 05:57:30;;;;;;;43.95;26.92;;;;;;;7.52;77.27;101476.69;5001713;28;20059;-78
2022/12/02 06:00:12;;;;;;;41.13;26.77;;;;;;;7.63;77.93;101511.25;5007232;28;20314;-78
2022/12/02 06:02:49;;;;;;;37.08;26.08;;;;;;;7.49;77.75;101489.16;4969099;28;20061;-78
2022/12/02 06:05:19;;;;;;;38.83;25.42;;;;;;;7.57;77.89;101509.81;4999644;28;20874;-78
2022/12/02 06:07:52;;;;;;;38.28;24.67;;;;;;;7.07;78.14;101430.13;4999526;28;20206;-77
2022/12/02 06:10:32;;;;;;;33.75;24.48;;;;;;;7.56;77.93;101513.41;5000157;28;20053;-78
2022/12/02 06:13:13;;;;;;;35.92;24.30;;;;;;;7.31;77.84;101479.75;4968775;28;20542;-79
2022/12/02 06:15:39;;;;;;;38.33;25.17;;;;;;;7.52;77.63;101501.31;4985000;28;20075;-79
2022/12/02 06:18:37;;;;;;;38.67;24.30;;;;;;;7.48;77.73;101508.59;4990398;28;20891;-76
2022/12/02 06:21:12;;;;;;;34.78;21.73;;;;;;;7.51;78.00;101502.28;4986049;28;20453;-78
2022/12/02 06:23:44;;;;;;;38.92;23.63;;;;;;;6.48;77.83;101329.03;4997827;28;20511;-80
2022/12/02 06:26:16;;;;;;;34.22;21.20;;;;;;;7.55;77.60;101501.16;5001561;28;20482;-79
2022/12/02 06:28:44;;;;;;;40.40;24.10;;;;;;;6.85;77.73;101398.06;5004090;28;20156;-78
2022/12/02 06:31:22;;;;;;;38.00;25.35;;;;;;;7.31;77.90;101474.47;4991799;28;20698;-80
2022/12/02 06:33:52;;;;;;;38.67;25.83;;;;;;;7.12;77.98;101442.19;4979919;28;20053;-79
2022/12/02 06:36:30;;;;;;;42.17;26.20;;;;;;;7.53;77.78;101499.56;4978311;28;20525;-79
2022/12/02 06:39:03;;;;;;;41.53;27.50;;;;;;;7.49;78.13;101504.16;4994109;28;20057;-79
2022/12/02 06:41:32;;;;;;;42.17;28.33;;;;;;;7.22;78.05;101456.53;4977889;28;20462;-79
2022/12/02 06:46:53;;;;;;;47.80;29.63;;;;;;;7.42;77.92;101482.56;4969141;28;20049;-78
2022/12/02 06:49:23;;;;;;;50.70;29.73;;;;;;;7.44;78.59;101503.59;4994416;28;20518;-80
2022/12/02 06:52:00;;;;;;;45.65;29.17;;;;;;;7.27;78.60;101478.22;5000625;28;20092;-79
2022/12/02 06:54:29;;;;;;;48.13;31.13;;;;;;;7.34;78.40;101490.09;4987887;28;20056;-79
2022/12/02 06:57:00;;;;;;;53.72;32.95;;;;;;;7.31;78.66;101494.75;4984703;28;20049;-80
2022/12/02 06:59:26;;;;;;;55.05;33.92;;;;;;;7.34;79.17;101505.13;5018590;28;20620;-78
2022/12/02 07:01:57;;;;;;;46.58;29.55;;;;;;;6.80;79.04;101400.13;4982006;28;20053;-79
2022/12/02 07:04:50;;;;;;;42.38;26.90;;;;;;;7.28;79.17;101501.03;4986285;28;20104;-79
2022/12/02 07:07:31;;;;;;;43.47;27.05;;;;;;;7.18;79.28;101473.50;4982881;28;20057;-77
2022/12/02 07:10:12;;;;;;;37.95;23.73;;;;;;;6.53;79.41;101366.53;4982975;28;20073;-80
2022/12/02 07:12:57;;;;;;;32.58;23.45;;;;;;;7.09;79.14;101453.78;4983874;28;20057;-78
2022/12/02 07:15:41;;;;;;;38.85;22.50;;;;;;;6.78;79.35;101399.34;4969377;28;20057;-80
2022/12/02 07:18:17;;;;;;;35.55;21.73;;;;;;;6.89;79.13;101425.94;4985422;28;20399;-80
2022/12/02 07:20:45;;;;;;;32.97;21.45;;;;;;;7.36;79.40;101514.66;4983894;28;20073;-77
2022/12/02 07:23:23;;;;;;;33.10;20.75;;;;;;;7.38;79.86;101512.75;4986533;28;20409;-80
2022/12/02 07:25:51;;;;;;;29.48;20.25;;;;;;;7.47;79.22;101511.34;4984242;28;20139;-79
2022/12/02 07:28:34;;;;;;;29.90;18.05;;;;;;;7.29;78.55;101473.69;4988250;28;20502;-80
2022/12/02 07:31:09;;;;;;;28.83;19.50;;;;;;;7.26;79.36;101484.47;4999057;28;20065;-79
2022/12/02 07:33:36;;;;;;;30.67;18.88;;;;;;;7.64;78.95;101520.88;4981621;28;20045;-81
2022/12/02 07:36:02;;;;;;;25.60;17.58;;;;;;;7.57;79.06;101514.25;4984247;28;20546;-79
2022/12/02 07:38:29;;;;;;;22.17;16.15;;;;;;;7.50;78.76;101516.44;4984632;28;20407;-81
2022/12/02 07:41:18;;;;;;;24.65;16.23;;;;;;;7.49;78.84;101527.94;4990161;28;20056;-80
2022/12/02 07:43:44;;;;;;;23.63;15.95;;;;;;;7.48;79.17;101545.59;4981847;28;20049;-80
2022/12/02 07:46:11;;;;;;;26.90;17.15;;;;;;;7.26;79.29;101500.31;5001510;28;20053;-79
2022/12/02 07:48:40;;;;;;;27.20;17.05;;;;;;;7.50;79.87;101542.88;4985034;28;20518;-78
2022/12/02 07:51:06;;;;;;;32.10;17.73;;;;;;;7.34;79.71;101505.97;4985233;28;20060;-79
2022/12/02 07:53:36;;;;;;;24.95;16.48;;;;;;;7.51;79.79;101530.50;4982665;28;20132;-79
2022/12/02 07:56:04;;;;;;;20.92;14.73;;;;;;;7.37;79.16;101513.69;4984032;28;20180;-81
2022/12/02 07:58:31;;;;;;;23.45;16.10;;;;;;;7.53;79.25;101536.56;4991662;28;20045;-79
2022/12/02 08:01:17;;;;;;;25.85;16.95;;;;;;;7.56;79.56;101552.22;4993498;28;20041;-81
2022/12/02 08:03:45;;;;;;;27.70;16.23;;;;;;;7.36;79.44;101516.44;5005488;28;20507;-78
2022/12/02 08:06:12;;;;;;;24.02;17.10;;;;;;;7.55;79.49;101542.56;4979215;28;20567;-78
2022/12/02 08:08:43;;;;;;;23.25;16.98;;;;;;;7.52;78.96;101529.56;4980382;28;20049;-81
2022/12/02 08:11:10;;;;;;;28.92;17.33;;;;;;;7.55;79.46;101545.22;4984580;28;20049;-79
2022/12/02 08:13:37;;;;;;;21.38;15.50;;;;;;;7.53;79.61;101547.97;4981471;28;20240;-80
2022/12/02 08:16:07;;;;;;;26.63;16.83;;;;;;;7.32;80.07;101502.56;4983447;28;20535;-79
2022/12/02 08:18:42;;;;;;;28.65;17.90;;;;;;;7.38;79.79;101515.41;4984509;28;20140;-79
2022/12/02 08:21:09;;;;;;;35.25;17.08;;;;;;;7.61;79.85;101550.13;4980659;28;20225;-79
2022/12/02 08:23:36;;;;;;;29.17;17.70;;;;;;;7.59;79.63;101538.81;4979991;28;20081;-79
2022/12/02 08:26:03;;;;;;;31.63;18.58;;;;;;;7.68;79.26;101556.75;4974759;28;20516;-80
2022/12/02 08:28:33;;;;;;;30.00;18.95;;;;;;;7.57;78.97;101543.31;4976605;28;20177;-79
2022/12/02 08:31:01;;;;;;;28.15;18.00;;;;;;;7.58;79.32;101542.41;4979141;28;20177;-78
2022/12/02 08:33:28;;;;;;;34.10;19.50;;;;;;;7.37;79.07;101495.19;4960000;28;20057;-80
2022/12/02 08:35:54;;;;;;;31.88;19.95;;;;;;;7.52;78.91;101508.41;4976600;28;20142;-79
2022/12/02 08:38:22;;;;;;;27.40;18.80;;;;;;;7.74;78.72;101550.22;4996350;28;20158;-79
2022/12/02 08:40:52;;;;;;;33.30;20.30;;;;;;;7.77;78.90;101550.03;4997203;28;20065;-79
2022/12/02 08:43:19;;;;;;;30.65;19.00;;;;;;;7.73;78.73;101543.25;4995695;28;20045;-80
2022/12/02 08:45:49;;;;;;;27.80;18.45;;;;;;;7.57;78.34;101517.75;4996006;28;20428;-79
2022/12/02 08:48:19;;;;;;;28.08;19.63;;;;;;;7.88;78.24;101560.78;4983190;28;20144;-79
2022/12/02 08:50:47;;;;;;;32.80;18.88;;;;;;;7.79;78.40;101551.66;4972615;28;20049;-81
2022/12/02 08:53:14;;;;;;;25.45;18.73;;;;;;;7.94;77.37;101573.63;4973056;28;20155;-80
2022/12/02 08:55:41;;;;;;;31.67;20.85;;;;;;;7.99;77.65;101571.56;4970797;28;20045;-80
2022/12/02 08:58:08;;;;;;;33.40;20.90;;;;;;;7.93;77.94;101561.34;4983067;28;20196;-79
2022/12/02 09:00:51;;;;;;;35.88;22.15;;;;;;;7.24;77.89;101449.38;5005486;28;20278;-81
2022/12/02 09:03:19;;;;;;;34.72;24.10;;;;;;;7.89;77.54;101544.84;5006357;28;20053;-80
2022/12/02 09:05:52;;;;;;;32.13;20.80;;;;;;;7.35;77.82;101461.91;5000801;28;20091;-80
2022/12/02 09:08:24;;;;;;;41.00;23.75;;;;;;;7.82;77.46;101527.66;4997655;28;20041;-80
2022/12/02 09:10:52;;;;;;;39.15;23.75;;;;;;;7.86;77.84;101545.03;4999927;28;20046;-79
2022/12/02 09:13:22;;;;;;;37.55;23.20;;;;;;;7.89;77.60;101550.13;4996228;28;20229;-79
2022/12/02 09:15:58;;;;;;;34.35;21.95;;;;;;;8.05;77.73;101578.25;4993640;28;20060;-77
2022/12/02 09:18:26;;;;;;;43.08;22.98;;;;;;;8.05;78.00;101580.88;4996677;28;20772;-80
2022/12/02 09:20:53;;;;;;;41.15;21.92;;;;;;;7.91;77.71;101535.03;4997464;28;20594;-78
2022/12/02 09:23:20;;;;;;;35.97;21.52;;;;;;;8.14;77.88;101569.75;4995296;28;20443;-79
2022/12/02 09:25:49;;;;;;;41.20;25.02;;;;;;;7.99;76.90;101531.06;4995983;28;20131;-79
2022/12/02 09:28:20;;;;;;;42.65;26.30;;;;;;;8.13;77.16;101562.72;4996555;28;20061;-79
2022/12/02 09:30:48;;;;;;;46.25;26.52;;;;;;;8.19;77.74;101557.06;4998642;28;20720;-79
2022/12/02 09:33:17;;;;;;;41.92;26.02;;;;;;;8.24;77.48;101554.97;4978478;28;20050;-81
2022/12/02 09:35:44;;;;;;;45.13;25.17;;;;;;;8.26;77.40;101561.03;4983789;28;20555;-80
2022/12/02 09:38:11;;;;;;;37.85;24.38;;;;;;;8.23;77.75;101548.00;4996829;28;20056;-81
2022/12/02 09:40:38;;;;;;;38.42;23.52;;;;;;;8.28;77.48;101555.66;4998977;28;20140;-81
2022/12/02 09:43:10;;;;;;;37.72;24.73;;;;;;;6.78;77.46;101302.56;4993919;28;20072;-80
2022/12/02 09:45:39;;;;;;;41.42;25.75;;;;;;;8.30;77.88;101562.53;4996837;28;20501;-80
2022/12/02 09:48:10;;;;;;;34.35;24.05;;;;;;;8.05;77.59;101502.41;4998190;28;21000;-81
2022/12/02 09:50:38;;;;;;;38.90;23.15;;;;;;;8.45;77.42;101559.88;4996545;28;20410;-80
2022/12/02 09:53:06;;;;;;;36.85;22.90;;;;;;;8.32;77.20;101551.84;4999543;28;20428;-82
2022/12/02 09:55:39;;;;;;;42.58;24.33;;;;;;;8.33;77.28;101558.84;4996178;28;20230;-81
2022/12/02 09:58:20;;;;;;;39.30;26.30;;;;;;;8.34;77.13;101558.72;4990106;28;20085;-81
2022/12/02 10:00:51;;;;;;;47.55;25.65;;;;;;;7.98;77.33;101513.47;4973738;28;20061;-80
2022/12/02 10:03:22;;;;;;;41.17;25.00;;;;;;;8.33;77.56;101543.81;4980342;28;20059;-77
2022/12/02 10:05:50;;;;;;;48.47;26.33;;;;;;;8.38;77.20;101547.97;4997437;28;20080;-77
2022/12/02 10:08:25;;;;;;;40.08;24.83;;;;;;;8.40;76.99;101541.66;5003702;28;20586;-78
2022/12/02 10:10:55;;;;;;;40.90;24.42;;;;;;;8.46;76.89;101551.81;4995574;28;20061;-78
2022/12/02 10:13:25;;;;;;;38.22;23.35;;;;;;;8.29;77.23;101533.50;4996829;28;20610;-79
2022/12/02 10:15:53;;;;;;;33.78;22.95;;;;;;;8.28;77.75;101535.31;4998161;28;20075;-79
2022/12/02 10:18:28;;;;;;;41.60;25.02;;;;;;;8.20;77.48;101519.06;4998700;28;20410;-79
2022/12/02 10:21:01;;;;;;;39.85;24.13;;;;;;;8.13;77.81;101504.53;5004523;28;20295;-80
2022/12/02 10:23:31;;;;;;;37.97;23.60;;;;;;;7.42;78.20;101387.44;5002688;28;20057;-80
2022/12/02 10:26:14;;;;;;;40.03;25.02;;;;;;;8.34;78.35;101529.63;5002029;28;20057;-80
2022/12/02 10:29:06;;;;;;;39.67;24.55;;;;;;;8.35;77.97;101523.41;4994278;28;20187;-79
2022/12/02 10:31:35;;;;;;;37.08;24.20;;;;;;;8.50;77.78;101526.03;4998310;28;20056;-77
2022/12/02 10:34:19;;;;;;;34.00;23.42;;;;;;;8.46;77.74;101508.63;4982363;28;20709;-79
2022/12/02 10:36:47;;;;;;;41.33;26.30;;;;;;;8.56;77.39;101529.09;5001714;28;20049;-79
2022/12/02 10:39:20;;;;;;;38.38;22.98;;;;;;;8.66;76.66;101529.34;5006892;28;20060;-79
2022/12/02 10:42:07;;;;;;;39.95;22.75;;;;;;;8.64;76.62;101533.03;5005107;28;20060;-80
2022/12/02 10:44:44;;;;;;;36.60;23.67;;;;;;;8.61;76.19;101517.38;5001044;28;20135;-78
2022/12/02 10:47:23;;;;;;;38.00;22.15;;;;;;;8.47;76.74;101499.75;4997368;28;20140;-78
2022/12/02 10:49:57;;;;;;;32.28;22.65;;;;;;;8.62;76.86;101521.72;5001678;28;20108;-79
2022/12/02 10:52:33;;;;;;;35.23;21.13;;;;;;;8.58;76.37;101528.16;4997620;28;20088;-79
2022/12/02 10:55:03;;;;;;;34.13;21.10;;;;;;;8.55;76.12;101530.06;5000601;28;20099;-79
2022/12/02 10:57:34;;;;;;;32.10;21.45;;;;;;;8.47;76.33;101518.25;4997835;28;20075;-80
2022/12/02 11:00:14;;;;;;;33.45;20.58;;;;;;;8.46;76.40;101511.28;5001887;28;20672;-80
2022/12/02 11:02:53;;;;;;;38.03;21.35;;;;;;;8.43;76.70;101507.03;5000820;28;20549;-79
2022/12/02 11:05:23;;;;;;;33.85;21.70;;;;;;;8.44;77.00;101518.47;4970425;28;20054;-79
2022/12/02 11:07:57;;;;;;;35.40;23.25;;;;;;;8.54;77.14;101519.56;4997334;28;20047;-78
2022/12/02 11:10:34;;;;;;;31.80;21.55;;;;;;;8.50;76.48;101523.38;4981960;28;20081;-79
2022/12/02 11:13:12;;;;;;;37.38;22.15;;;;;;;8.45;76.63;101510.44;4998140;28;20228;-79
2022/12/02 11:15:47;;;;;;;35.55;23.35;;;;;;;8.48;77.23;101517.34;4996581;28;20045;-79
2022/12/02 11:18:23;;;;;;;34.72;22.85;;;;;;;8.20;77.28;101457.41;4998020;28;20057;-79
2022/12/02 11:21:13;;;;;;;39.70;22.90;;;;;;;8.50;76.75;101502.22;4997738;28;20423;-79
2022/12/02 11:23:40;;;;;;;33.05;22.10;;;;;;;8.33;76.52;101476.81;4985381;28;20292;-78
2022/12/02 11:26:10;;;;;;;38.70;24.17;;;;;;;7.42;77.01;101326.69;4994540;28;20053;-79
2022/12/02 11:28:46;;;;;;;38.72;22.92;;;;;;;8.60;76.97;101507.75;4981242;28;20517;-79
2022/12/02 11:31:24;;;;;;;39.08;23.73;;;;;;;8.50;77.01;101491.63;4986529;28;20353;-76
2022/12/02 11:34:00;;;;;;;39.55;23.33;;;;;;;8.29;77.02;101439.13;4998288;28;20159;-78
2022/12/02 11:36:33;;;;;;;37.85;23.83;;;;;;;8.53;76.14;101491.41;4991200;28;20091;-81
2022/12/02 11:39:04;;;;;;;41.22;26.60;;;;;;;8.21;77.38;101438.78;4997039;28;20143;-78